sensor_id;sensor_type;location;lat;lon;timestamp;P1;durP1;ratioP1;P2;durP2;ratioP2
10880;SDS011;5493;48.884;8.338;2023-04-15T00:00:55;3.47;;;1.40;;
10880;SDS011;5493;48.884;8.338;2023-04-15T00:03:22;3.17;;;1.43;;
10880;SDS011;5493;48.884;8.338;2023-04-15T00:05:49;2.30;;;1.20;;
10880;SDS011;5493;48.884;8.338;2023-04-15T00:08:16;2.50;;;1.40;;
10880;SDS011;5493;48.884;8.338;2023-04-15T00:10:42;2.33;;;1.40;;
10880;SDS011;5493;48.884;8.338;2023-04-15T00:13:11;1.93;;;1.07;;
10880;SDS011;5493;48.884;8.338;2023-04-15T00:15:39;1.40;;;1.07;;
10880;SDS011;5493;48.884;8.338;2023-04-15T00:18:06;3.53;;;1.20;;
10880;SDS011;5493;48.884;8.338;2023-04-15T00:20:33;1.47;;;1.07;;
10880;SDS011;5493;48.884;8.338;2023-04-15T00:23:00;2.30;;;1.30;;
10880;SDS011;5493;48.884;8.338;2023-04-15T00:25:28;4.50;;;1.10;;
10880;SDS011;5493;48.884;8.338;2023-04-15T00:27:54;1.20;;;1.10;;
10880;SDS011;5493;48.884;8.338;2023-04-15T00:30:22;2.33;;;1.30;;
10880;SDS011;5493;48.884;8.338;2023-04-15T00:32:49;5.60;;;1.27;;
10880;SDS011;5493;48.884;8.338;2023-04-15T00:35:16;4.37;;;1.10;;
10880;SDS011;5493;48.884;8.338;2023-04-15T00:37:43;1.80;;;0.90;;
10880;SDS011;5493;48.884;8.338;2023-04-15T00:40:10;1.60;;;1.00;;
10880;SDS011;5493;48.884;8.338;2023-04-15T00:42:38;4.20;;;1.10;;
10880;SDS011;5493;48.884;8.338;2023-04-15T00:45:05;2.03;;;0.90;;
10880;SDS011;5493;48.884;8.338;2023-04-15T00:47:34;2.17;;;1.00;;
10880;SDS011;5493;48.884;8.338;2023-04-15T00:50:01;3.13;;;1.23;;
10880;SDS011;5493;48.884;8.338;2023-04-15T00:52:28;1.90;;;1.20;;
10880;SDS011;5493;48.884;8.338;2023-04-15T00:54:56;3.00;;;1.17;;
10880;SDS011;5493;48.884;8.338;2023-04-15T00:57:22;2.60;;;1.10;;
10880;SDS011;5493;48.884;8.338;2023-04-15T00:59:49;2.47;;;1.50;;
10880;SDS011;5493;48.884;8.338;2023-04-15T01:02:17;2.60;;;1.23;;
10880;SDS011;5493;48.884;8.338;2023-04-15T01:04:46;1.90;;;1.00;;
10880;SDS011;5493;48.884;8.338;2023-04-15T01:07:12;2.23;;;1.20;;
10880;SDS011;5493;48.884;8.338;2023-04-15T01:09:39;2.93;;;1.37;;
10880;SDS011;5493;48.884;8.338;2023-04-15T01:12:06;1.30;;;1.00;;
10880;SDS011;5493;48.884;8.338;2023-04-15T01:14:35;1.60;;;1.10;;
10880;SDS011;5493;48.884;8.338;2023-04-15T01:17:01;2.63;;;1.37;;
10880;SDS011;5493;48.884;8.338;2023-04-15T01:19:28;1.23;;;0.70;;
10880;SDS011;5493;48.884;8.338;2023-04-15T01:21:56;3.17;;;0.80;;
10880;SDS011;5493;48.884;8.338;2023-04-15T01:24:23;1.17;;;1.07;;
10880;SDS011;5493;48.884;8.338;2023-04-15T01:26:53;1.97;;;1.43;;
10880;SDS011;5493;48.884;8.338;2023-04-15T01:29:20;2.10;;;1.30;;
10880;SDS011;5493;48.884;8.338;2023-04-15T01:31:50;2.77;;;1.30;;
10880;SDS011;5493;48.884;8.338;2023-04-15T01:34:17;1.63;;;1.33;;
10880;SDS011;5493;48.884;8.338;2023-04-15T01:36:45;3.23;;;1.50;;
10880;SDS011;5493;48.884;8.338;2023-04-15T01:39:11;4.63;;;1.17;;
10880;SDS011;5493;48.884;8.338;2023-04-15T01:41:38;5.40;;;1.73;;
10880;SDS011;5493;48.884;8.338;2023-04-15T01:44:06;2.43;;;1.27;;
10880;SDS011;5493;48.884;8.338;2023-04-15T01:46:33;3.83;;;1.60;;
10880;SDS011;5493;48.884;8.338;2023-04-15T01:48:59;6.43;;;2.10;;
10880;SDS011;5493;48.884;8.338;2023-04-15T01:51:26;2.60;;;1.70;;
10880;SDS011;5493;48.884;8.338;2023-04-15T01:53:53;4.63;;;1.90;;
10880;SDS011;5493;48.884;8.338;2023-04-15T01:56:20;6.70;;;3.03;;
10880;SDS011;5493;48.884;8.338;2023-04-15T01:58:48;10.67;;;3.83;;
10880;SDS011;5493;48.884;8.338;2023-04-15T02:01:16;11.33;;;4.43;;
10880;SDS011;5493;48.884;8.338;2023-04-15T02:03:43;16.87;;;6.50;;
10880;SDS011;5493;48.884;8.338;2023-04-15T02:06:10;17.10;;;6.70;;
10880;SDS011;5493;48.884;8.338;2023-04-15T02:08:37;20.17;;;7.47;;
10880;SDS011;5493;48.884;8.338;2023-04-15T02:11:03;15.67;;;6.80;;
10880;SDS011;5493;48.884;8.338;2023-04-15T02:13:30;19.77;;;6.33;;
10880;SDS011;5493;48.884;8.338;2023-04-15T02:15:57;10.33;;;4.67;;
10880;SDS011;5493;48.884;8.338;2023-04-15T02:18:25;4.30;;;2.57;;
10880;SDS011;5493;48.884;8.338;2023-04-15T02:20:52;4.07;;;1.80;;
10880;SDS011;5493;48.884;8.338;2023-04-15T02:23:18;2.23;;;1.60;;
10880;SDS011;5493;48.884;8.338;2023-04-15T02:25:45;1.97;;;1.33;;
10880;SDS011;5493;48.884;8.338;2023-04-15T02:28:11;3.20;;;1.40;;
10880;SDS011;5493;48.884;8.338;2023-04-15T02:30:38;1.80;;;1.10;;
10880;SDS011;5493;48.884;8.338;2023-04-15T02:33:05;6.93;;;2.60;;
10880;SDS011;5493;48.884;8.338;2023-04-15T02:35:33;7.57;;;2.67;;
10880;SDS011;5493;48.884;8.338;2023-04-15T02:38:03;4.20;;;1.90;;
10880;SDS011;5493;48.884;8.338;2023-04-15T02:40:29;3.70;;;1.80;;
10880;SDS011;5493;48.884;8.338;2023-04-15T02:42:56;2.30;;;1.33;;
10880;SDS011;5493;48.884;8.338;2023-04-15T02:45:22;3.77;;;1.50;;
10880;SDS011;5493;48.884;8.338;2023-04-15T02:47:52;2.57;;;1.60;;
10880;SDS011;5493;48.884;8.338;2023-04-15T02:50:18;6.77;;;3.23;;
10880;SDS011;5493;48.884;8.338;2023-04-15T02:52:46;4.17;;;2.50;;
10880;SDS011;5493;48.884;8.338;2023-04-15T02:55:13;4.17;;;2.43;;
10880;SDS011;5493;48.884;8.338;2023-04-15T02:57:39;3.60;;;1.70;;
10880;SDS011;5493;48.884;8.338;2023-04-15T03:00:06;2.30;;;1.40;;
10880;SDS011;5493;48.884;8.338;2023-04-15T03:02:35;2.60;;;1.20;;
10880;SDS011;5493;48.884;8.338;2023-04-15T03:05:02;2.13;;;1.30;;
10880;SDS011;5493;48.884;8.338;2023-04-15T03:07:29;1.60;;;0.90;;
10880;SDS011;5493;48.884;8.338;2023-04-15T03:09:57;1.80;;;1.10;;
10880;SDS011;5493;48.884;8.338;2023-04-15T03:12:24;1.80;;;0.97;;
10880;SDS011;5493;48.884;8.338;2023-04-15T03:14:50;2.70;;;1.10;;
10880;SDS011;5493;48.884;8.338;2023-04-15T03:17:17;2.47;;;1.40;;
10880;SDS011;5493;48.884;8.338;2023-04-15T03:19:43;2.60;;;1.50;;
10880;SDS011;5493;48.884;8.338;2023-04-15T03:22:10;2.77;;;1.40;;
10880;SDS011;5493;48.884;8.338;2023-04-15T03:24:37;2.63;;;1.57;;
10880;SDS011;5493;48.884;8.338;2023-04-15T03:27:04;2.70;;;1.13;;
10880;SDS011;5493;48.884;8.338;2023-04-15T03:29:32;1.80;;;1.40;;
10880;SDS011;5493;48.884;8.338;2023-04-15T03:31:58;2.23;;;1.33;;
10880;SDS011;5493;48.884;8.338;2023-04-15T03:34:26;2.00;;;1.37;;
10880;SDS011;5493;48.884;8.338;2023-04-15T03:36:52;3.33;;;1.20;;
10880;SDS011;5493;48.884;8.338;2023-04-15T03:39:19;2.63;;;1.00;;
10880;SDS011;5493;48.884;8.338;2023-04-15T03:41:45;3.13;;;1.20;;
10880;SDS011;5493;48.884;8.338;2023-04-15T03:44:13;11.23;;;4.53;;
10880;SDS011;5493;48.884;8.338;2023-04-15T03:46:40;14.23;;;6.30;;
10880;SDS011;5493;48.884;8.338;2023-04-15T03:49:07;8.73;;;4.77;;
10880;SDS011;5493;48.884;8.338;2023-04-15T03:51:33;7.17;;;4.27;;
10880;SDS011;5493;48.884;8.338;2023-04-15T03:54:00;8.73;;;4.30;;
10880;SDS011;5493;48.884;8.338;2023-04-15T03:56:27;7.27;;;4.00;;
10880;SDS011;5493;48.884;8.338;2023-04-15T03:58:53;6.47;;;3.23;;
10880;SDS011;5493;48.884;8.338;2023-04-15T04:01:21;4.57;;;2.87;;
10880;SDS011;5493;48.884;8.338;2023-04-15T04:03:48;5.20;;;2.70;;
10880;SDS011;5493;48.884;8.338;2023-04-15T04:06:14;4.50;;;2.53;;
10880;SDS011;5493;48.884;8.338;2023-04-15T04:08:41;2.27;;;1.97;;
10880;SDS011;5493;48.884;8.338;2023-04-15T04:11:07;2.97;;;2.00;;
10880;SDS011;5493;48.884;8.338;2023-04-15T04:13:34;3.87;;;1.60;;
10880;SDS011;5493;48.884;8.338;2023-04-15T04:16:01;2.20;;;1.60;;
10880;SDS011;5493;48.884;8.338;2023-04-15T04:18:29;3.60;;;2.27;;
10880;SDS011;5493;48.884;8.338;2023-04-15T04:20:56;5.40;;;2.90;;
10880;SDS011;5493;48.884;8.338;2023-04-15T04:23:23;3.07;;;2.03;;
10880;SDS011;5493;48.884;8.338;2023-04-15T04:25:49;2.37;;;1.67;;
10880;SDS011;5493;48.884;8.338;2023-04-15T04:28:16;1.70;;;1.30;;
10880;SDS011;5493;48.884;8.338;2023-04-15T04:30:43;2.13;;;1.40;;
10880;SDS011;5493;48.884;8.338;2023-04-15T04:33:10;2.00;;;1.73;;
10880;SDS011;5493;48.884;8.338;2023-04-15T04:35:37;1.70;;;1.37;;
10880;SDS011;5493;48.884;8.338;2023-04-15T04:38:04;1.60;;;1.33;;
10880;SDS011;5493;48.884;8.338;2023-04-15T04:40:30;1.80;;;1.50;;
10880;SDS011;5493;48.884;8.338;2023-04-15T04:42:57;2.93;;;1.20;;
10880;SDS011;5493;48.884;8.338;2023-04-15T04:45:23;4.10;;;1.30;;
10880;SDS011;5493;48.884;8.338;2023-04-15T04:47:51;2.60;;;1.43;;
10880;SDS011;5493;48.884;8.338;2023-04-15T04:50:37;1.47;;;1.20;;
10880;SDS011;5493;48.884;8.338;2023-04-15T04:53:04;1.97;;;1.43;;
10880;SDS011;5493;48.884;8.338;2023-04-15T04:55:30;1.40;;;0.97;;
10880;SDS011;5493;48.884;8.338;2023-04-15T04:57:57;3.07;;;1.03;;
10880;SDS011;5493;48.884;8.338;2023-04-15T05:00:23;4.00;;;1.13;;
10880;SDS011;5493;48.884;8.338;2023-04-15T05:02:50;1.90;;;1.00;;
10880;SDS011;5493;48.884;8.338;2023-04-15T05:05:16;0.93;;;0.90;;
10880;SDS011;5493;48.884;8.338;2023-04-15T05:07:44;1.40;;;1.10;;
10880;SDS011;5493;48.884;8.338;2023-04-15T05:10:11;1.17;;;0.93;;
10880;SDS011;5493;48.884;8.338;2023-04-15T05:12:39;2.47;;;1.20;;
10880;SDS011;5493;48.884;8.338;2023-04-15T05:15:06;1.87;;;1.33;;
10880;SDS011;5493;48.884;8.338;2023-04-15T05:17:33;1.43;;;1.00;;
10880;SDS011;5493;48.884;8.338;2023-04-15T05:20:00;2.57;;;1.10;;
10880;SDS011;5493;48.884;8.338;2023-04-15T05:22:26;1.40;;;1.00;;
10880;SDS011;5493;48.884;8.338;2023-04-15T05:24:54;3.30;;;1.30;;
10880;SDS011;5493;48.884;8.338;2023-04-15T05:27:21;4.87;;;1.43;;
10880;SDS011;5493;48.884;8.338;2023-04-15T05:29:48;11.77;;;5.57;;
10880;SDS011;5493;48.884;8.338;2023-04-15T05:32:15;4.33;;;2.70;;
10880;SDS011;5493;48.884;8.338;2023-04-15T05:34:41;5.83;;;2.83;;
10880;SDS011;5493;48.884;8.338;2023-04-15T05:37:08;4.30;;;2.07;;
10880;SDS011;5493;48.884;8.338;2023-04-15T05:39:34;9.07;;;6.37;;
10880;SDS011;5493;48.884;8.338;2023-04-15T05:42:02;4.67;;;3.50;;
10880;SDS011;5493;48.884;8.338;2023-04-15T05:44:29;3.43;;;2.30;;
10880;SDS011;5493;48.884;8.338;2023-04-15T05:46:56;3.30;;;2.57;;
10880;SDS011;5493;48.884;8.338;2023-04-15T05:49:22;4.80;;;2.40;;
10880;SDS011;5493;48.884;8.338;2023-04-15T05:51:49;7.20;;;3.57;;
10880;SDS011;5493;48.884;8.338;2023-04-15T05:54:16;9.57;;;4.07;;
10880;SDS011;5493;48.884;8.338;2023-04-15T05:56:43;7.97;;;3.73;;
10880;SDS011;5493;48.884;8.338;2023-04-15T05:59:10;5.93;;;3.53;;
10880;SDS011;5493;48.884;8.338;2023-04-15T06:01:37;6.87;;;3.70;;
10880;SDS011;5493;48.884;8.338;2023-04-15T06:04:04;4.00;;;3.00;;
10880;SDS011;5493;48.884;8.338;2023-04-15T06:06:30;4.37;;;2.70;;
10880;SDS011;5493;48.884;8.338;2023-04-15T06:08:57;6.07;;;3.30;;
10880;SDS011;5493;48.884;8.338;2023-04-15T06:11:24;6.60;;;4.07;;
10880;SDS011;5493;48.884;8.338;2023-04-15T06:13:51;8.03;;;4.87;;
10880;SDS011;5493;48.884;8.338;2023-04-15T06:16:19;5.57;;;4.20;;
10880;SDS011;5493;48.884;8.338;2023-04-15T06:18:45;8.10;;;3.50;;
10880;SDS011;5493;48.884;8.338;2023-04-15T06:21:12;4.43;;;3.60;;
10880;SDS011;5493;48.884;8.338;2023-04-15T06:23:38;9.13;;;5.23;;
10880;SDS011;5493;48.884;8.338;2023-04-15T06:26:06;5.00;;;3.63;;
10880;SDS011;5493;48.884;8.338;2023-04-15T06:28:32;6.17;;;3.90;;
10880;SDS011;5493;48.884;8.338;2023-04-15T06:30:59;5.57;;;3.77;;
10880;SDS011;5493;48.884;8.338;2023-04-15T06:33:27;7.03;;;3.47;;
10880;SDS011;5493;48.884;8.338;2023-04-15T06:35:54;5.60;;;3.40;;
10880;SDS011;5493;48.884;8.338;2023-04-15T06:38:20;6.40;;;3.10;;
10880;SDS011;5493;48.884;8.338;2023-04-15T06:40:47;5.00;;;3.10;;
10880;SDS011;5493;48.884;8.338;2023-04-15T06:43:13;4.60;;;2.80;;
10880;SDS011;5493;48.884;8.338;2023-04-15T06:45:40;8.00;;;3.00;;
10880;SDS011;5493;48.884;8.338;2023-04-15T06:48:06;5.97;;;3.57;;
10880;SDS011;5493;48.884;8.338;2023-04-15T06:50:34;5.73;;;3.17;;
10880;SDS011;5493;48.884;8.338;2023-04-15T06:53:00;5.73;;;2.90;;
10880;SDS011;5493;48.884;8.338;2023-04-15T06:55:27;5.40;;;2.97;;
10880;SDS011;5493;48.884;8.338;2023-04-15T06:57:53;5.13;;;2.97;;
10880;SDS011;5493;48.884;8.338;2023-04-15T07:00:20;5.67;;;2.90;;
10880;SDS011;5493;48.884;8.338;2023-04-15T07:02:46;8.97;;;2.80;;
10880;SDS011;5493;48.884;8.338;2023-04-15T07:05:13;4.20;;;2.50;;
10880;SDS011;5493;48.884;8.338;2023-04-15T07:07:41;3.73;;;2.33;;
10880;SDS011;5493;48.884;8.338;2023-04-15T07:10:08;3.87;;;2.40;;
10880;SDS011;5493;48.884;8.338;2023-04-15T07:12:36;6.43;;;2.97;;
10880;SDS011;5493;48.884;8.338;2023-04-15T07:15:02;4.10;;;2.83;;
10880;SDS011;5493;48.884;8.338;2023-04-15T07:17:29;4.10;;;2.90;;
10880;SDS011;5493;48.884;8.338;2023-04-15T07:19:57;4.93;;;2.60;;
10880;SDS011;5493;48.884;8.338;2023-04-15T07:22:23;4.33;;;3.30;;
10880;SDS011;5493;48.884;8.338;2023-04-15T07:24:51;3.93;;;2.67;;
10880;SDS011;5493;48.884;8.338;2023-04-15T07:27:18;4.90;;;2.77;;
10880;SDS011;5493;48.884;8.338;2023-04-15T07:29:44;3.03;;;2.20;;
10880;SDS011;5493;48.884;8.338;2023-04-15T07:32:11;3.97;;;2.57;;
10880;SDS011;5493;48.884;8.338;2023-04-15T07:34:37;7.13;;;2.40;;
10880;SDS011;5493;48.884;8.338;2023-04-15T07:37:05;4.57;;;2.77;;
10880;SDS011;5493;48.884;8.338;2023-04-15T07:39:31;4.47;;;3.10;;
10880;SDS011;5493;48.884;8.338;2023-04-15T07:41:59;4.00;;;2.53;;
10880;SDS011;5493;48.884;8.338;2023-04-15T07:44:26;6.67;;;3.23;;
10880;SDS011;5493;48.884;8.338;2023-04-15T07:46:52;3.73;;;2.50;;
10880;SDS011;5493;48.884;8.338;2023-04-15T07:49:19;3.73;;;2.30;;
10880;SDS011;5493;48.884;8.338;2023-04-15T07:51:46;3.70;;;2.40;;
10880;SDS011;5493;48.884;8.338;2023-04-15T07:54:12;5.13;;;2.70;;
10880;SDS011;5493;48.884;8.338;2023-04-15T07:56:39;3.27;;;2.33;;
10880;SDS011;5493;48.884;8.338;2023-04-15T07:59:07;4.40;;;2.47;;
10880;SDS011;5493;48.884;8.338;2023-04-15T08:01:34;4.13;;;2.30;;
10880;SDS011;5493;48.884;8.338;2023-04-15T08:04:01;3.43;;;2.33;;
10880;SDS011;5493;48.884;8.338;2023-04-15T08:06:29;3.70;;;2.27;;
10880;SDS011;5493;48.884;8.338;2023-04-15T08:08:55;5.63;;;2.70;;
10880;SDS011;5493;48.884;8.338;2023-04-15T08:11:22;5.10;;;2.80;;
10880;SDS011;5493;48.884;8.338;2023-04-15T08:13:48;6.57;;;2.70;;
10880;SDS011;5493;48.884;8.338;2023-04-15T08:16:18;4.87;;;2.50;;
10880;SDS011;5493;48.884;8.338;2023-04-15T08:18:46;4.10;;;2.50;;
10880;SDS011;5493;48.884;8.338;2023-04-15T08:21:13;4.47;;;2.57;;
10880;SDS011;5493;48.884;8.338;2023-04-15T08:23:40;3.37;;;2.30;;
10880;SDS011;5493;48.884;8.338;2023-04-15T08:26:08;6.53;;;2.17;;
10880;SDS011;5493;48.884;8.338;2023-04-15T08:28:35;4.43;;;2.60;;
10880;SDS011;5493;48.884;8.338;2023-04-15T08:31:03;2.87;;;2.03;;
10880;SDS011;5493;48.884;8.338;2023-04-15T08:33:31;3.97;;;2.10;;
10880;SDS011;5493;48.884;8.338;2023-04-15T08:35:57;4.63;;;2.80;;
10880;SDS011;5493;48.884;8.338;2023-04-15T08:38:24;5.77;;;2.60;;
10880;SDS011;5493;48.884;8.338;2023-04-15T08:40:50;4.77;;;2.47;;
10880;SDS011;5493;48.884;8.338;2023-04-15T08:43:19;3.80;;;2.20;;
10880;SDS011;5493;48.884;8.338;2023-04-15T08:45:50;12.97;;;6.70;;
10880;SDS011;5493;48.884;8.338;2023-04-15T08:48:18;3.80;;;2.43;;
10880;SDS011;5493;48.884;8.338;2023-04-15T08:50:46;4.07;;;2.40;;
10880;SDS011;5493;48.884;8.338;2023-04-15T08:53:13;6.07;;;2.30;;
10880;SDS011;5493;48.884;8.338;2023-04-15T08:55:41;3.97;;;2.33;;
10880;SDS011;5493;48.884;8.338;2023-04-15T08:58:10;4.93;;;2.27;;
10880;SDS011;5493;48.884;8.338;2023-04-15T09:00:37;3.07;;;2.33;;
10880;SDS011;5493;48.884;8.338;2023-04-15T09:03:04;5.03;;;2.47;;
10880;SDS011;5493;48.884;8.338;2023-04-15T09:05:31;3.87;;;2.40;;
10880;SDS011;5493;48.884;8.338;2023-04-15T09:08:00;5.63;;;2.17;;
10880;SDS011;5493;48.884;8.338;2023-04-15T09:10:27;4.10;;;2.40;;
10880;SDS011;5493;48.884;8.338;2023-04-15T09:12:54;4.83;;;2.63;;
10880;SDS011;5493;48.884;8.338;2023-04-15T09:15:20;4.77;;;2.67;;
10880;SDS011;5493;48.884;8.338;2023-04-15T09:17:47;4.23;;;1.93;;
10880;SDS011;5493;48.884;8.338;2023-04-15T09:20:14;4.37;;;2.03;;
10880;SDS011;5493;48.884;8.338;2023-04-15T09:22:43;3.15;;;2.03;;
10880;SDS011;5493;48.884;8.338;2023-04-15T09:25:28;3.22;;;1.90;;
10880;SDS011;5493;48.884;8.338;2023-04-15T09:27:55;3.17;;;1.95;;
10880;SDS011;5493;48.884;8.338;2023-04-15T09:30:23;3.75;;;1.80;;
10880;SDS011;5493;48.884;8.338;2023-04-15T09:32:50;3.38;;;2.25;;
10880;SDS011;5493;48.884;8.338;2023-04-15T09:35:17;5.63;;;2.00;;
10880;SDS011;5493;48.884;8.338;2023-04-15T09:37:44;4.18;;;2.10;;
10880;SDS011;5493;48.884;8.338;2023-04-15T09:40:11;4.35;;;1.80;;
10880;SDS011;5493;48.884;8.338;2023-04-15T09:45:31;2.90;;;1.83;;
10880;SDS011;5493;48.884;8.338;2023-04-15T09:47:58;3.20;;;2.10;;
10880;SDS011;5493;48.884;8.338;2023-04-15T09:50:39;3.55;;;2.20;;
10880;SDS011;5493;48.884;8.338;2023-04-15T09:53:07;5.05;;;1.90;;
10880;SDS011;5493;48.884;8.338;2023-04-15T09:55:34;4.95;;;1.95;;
10880;SDS011;5493;48.884;8.338;2023-04-15T09:58:01;5.90;;;2.03;;
10880;SDS011;5493;48.884;8.338;2023-04-15T10:00:28;7.20;;;2.38;;
10880;SDS011;5493;48.884;8.338;2023-04-15T10:02:56;3.92;;;1.88;;
10880;SDS011;5493;48.884;8.338;2023-04-15T10:05:22;5.45;;;2.65;;
10880;SDS011;5493;48.884;8.338;2023-04-15T10:07:49;3.40;;;1.80;;
10880;SDS011;5493;48.884;8.338;2023-04-15T10:10:16;5.07;;;2.50;;
10880;SDS011;5493;48.884;8.338;2023-04-15T10:12:43;3.75;;;2.00;;
10880;SDS011;5493;48.884;8.338;2023-04-15T10:15:12;3.92;;;1.90;;
10880;SDS011;5493;48.884;8.338;2023-04-15T10:17:42;4.63;;;1.58;;
10880;SDS011;5493;48.884;8.338;2023-04-15T10:20:11;2.47;;;1.80;;
10880;SDS011;5493;48.884;8.338;2023-04-15T10:22:39;3.08;;;1.90;;
10880;SDS011;5493;48.884;8.338;2023-04-15T10:25:07;5.88;;;1.70;;
10880;SDS011;5493;48.884;8.338;2023-04-15T10:27:34;4.93;;;1.77;;
10880;SDS011;5493;48.884;8.338;2023-04-15T10:30:01;3.33;;;2.00;;
10880;SDS011;5493;48.884;8.338;2023-04-15T10:32:28;4.63;;;2.10;;
10880;SDS011;5493;48.884;8.338;2023-04-15T10:34:55;2.80;;;2.13;;
10880;SDS011;5493;48.884;8.338;2023-04-15T10:37:32;3.80;;;2.10;;
10880;SDS011;5493;48.884;8.338;2023-04-15T10:40:00;3.83;;;2.00;;
10880;SDS011;5493;48.884;8.338;2023-04-15T10:42:32;3.83;;;2.22;;
10880;SDS011;5493;48.884;8.338;2023-04-15T10:44:59;2.67;;;2.15;;
10880;SDS011;5493;48.884;8.338;2023-04-15T10:47:26;4.28;;;2.58;;
10880;SDS011;5493;48.884;8.338;2023-04-15T10:49:56;4.38;;;2.13;;
10880;SDS011;5493;48.884;8.338;2023-04-15T10:52:25;5.07;;;2.30;;
10880;SDS011;5493;48.884;8.338;2023-04-15T10:55:00;4.22;;;2.45;;
10880;SDS011;5493;48.884;8.338;2023-04-15T10:57:31;3.50;;;2.13;;
10880;SDS011;5493;48.884;8.338;2023-04-15T11:00:09;9.55;;;2.30;;
10880;SDS011;5493;48.884;8.338;2023-04-15T11:02:38;3.63;;;2.10;;
10880;SDS011;5493;48.884;8.338;2023-04-15T11:05:06;5.93;;;2.20;;
10880;SDS011;5493;48.884;8.338;2023-04-15T11:07:38;3.38;;;2.40;;
10880;SDS011;5493;48.884;8.338;2023-04-15T11:13:20;5.43;;;2.55;;
10880;SDS011;5493;48.884;8.338;2023-04-15T11:15:49;2.58;;;2.10;;
10880;SDS011;5493;48.884;8.338;2023-04-15T11:18:16;4.18;;;1.92;;
10880;SDS011;5493;48.884;8.338;2023-04-15T11:20:45;4.18;;;2.25;;
10880;SDS011;5493;48.884;8.338;2023-04-15T11:23:14;4.85;;;2.00;;
10880;SDS011;5493;48.884;8.338;2023-04-15T11:25:41;3.03;;;1.88;;
10880;SDS011;5493;48.884;8.338;2023-04-15T11:28:08;3.33;;;2.38;;
10880;SDS011;5493;48.884;8.338;2023-04-15T11:30:35;4.50;;;2.17;;
10880;SDS011;5493;48.884;8.338;2023-04-15T11:33:02;6.68;;;3.50;;
10880;SDS011;5493;48.884;8.338;2023-04-15T11:35:30;5.10;;;2.58;;
10880;SDS011;5493;48.884;8.338;2023-04-15T11:37:57;4.03;;;2.35;;
10880;SDS011;5493;48.884;8.338;2023-04-15T11:40:26;3.78;;;2.38;;
10880;SDS011;5493;48.884;8.338;2023-04-15T11:43:02;3.72;;;2.70;;
10880;SDS011;5493;48.884;8.338;2023-04-15T11:45:30;5.43;;;2.80;;
10880;SDS011;5493;48.884;8.338;2023-04-15T11:48:03;5.03;;;2.88;;
10880;SDS011;5493;48.884;8.338;2023-04-15T11:50:31;4.75;;;2.60;;
10880;SDS011;5493;48.884;8.338;2023-04-15T11:52:58;5.28;;;2.67;;
10880;SDS011;5493;48.884;8.338;2023-04-15T11:55:27;3.95;;;2.72;;
10880;SDS011;5493;48.884;8.338;2023-04-15T11:58:07;4.82;;;3.03;;
10880;SDS011;5493;48.884;8.338;2023-04-15T12:00:35;4.97;;;2.72;;
10880;SDS011;5493;48.884;8.338;2023-04-15T12:03:12;6.43;;;2.67;;
10880;SDS011;5493;48.884;8.338;2023-04-15T12:11:36;4.88;;;2.05;;
10880;SDS011;5493;48.884;8.338;2023-04-15T12:14:06;5.93;;;2.42;;
10880;SDS011;5493;48.884;8.338;2023-04-15T12:16:36;5.85;;;2.33;;
10880;SDS011;5493;48.884;8.338;2023-04-15T12:19:06;5.10;;;2.40;;
10880;SDS011;5493;48.884;8.338;2023-04-15T12:21:35;5.22;;;2.17;;
10880;SDS011;5493;48.884;8.338;2023-04-15T12:24:03;5.90;;;1.90;;
10880;SDS011;5493;48.884;8.338;2023-04-15T12:26:33;3.47;;;2.10;;
10880;SDS011;5493;48.884;8.338;2023-04-15T12:29:03;4.00;;;1.90;;
10880;SDS011;5493;48.884;8.338;2023-04-15T12:31:33;3.10;;;2.03;;
10880;SDS011;5493;48.884;8.338;2023-04-15T12:34:01;3.53;;;1.80;;
10880;SDS011;5493;48.884;8.338;2023-04-15T12:36:28;5.07;;;1.92;;
10880;SDS011;5493;48.884;8.338;2023-04-15T12:39:00;2.97;;;2.10;;
10880;SDS011;5493;48.884;8.338;2023-04-15T12:41:26;6.03;;;2.00;;
10880;SDS011;5493;48.884;8.338;2023-04-15T12:43:54;3.90;;;1.73;;
10880;SDS011;5493;48.884;8.338;2023-04-15T12:46:21;3.17;;;1.80;;
10880;SDS011;5493;48.884;8.338;2023-04-15T12:48:47;5.13;;;2.03;;
10880;SDS011;5493;48.884;8.338;2023-04-15T12:51:14;3.33;;;1.52;;
10880;SDS011;5493;48.884;8.338;2023-04-15T12:53:40;3.10;;;1.50;;
10880;SDS011;5493;48.884;8.338;2023-04-15T12:56:07;3.75;;;1.77;;
10880;SDS011;5493;48.884;8.338;2023-04-15T12:58:33;3.05;;;1.38;;
10880;SDS011;5493;48.884;8.338;2023-04-15T13:01:01;3.78;;;1.77;;
10880;SDS011;5493;48.884;8.338;2023-04-15T13:03:28;4.35;;;2.05;;
10880;SDS011;5493;48.884;8.338;2023-04-15T13:05:54;5.03;;;2.08;;
10880;SDS011;5493;48.884;8.338;2023-04-15T13:08:21;3.38;;;2.00;;
10880;SDS011;5493;48.884;8.338;2023-04-15T13:10:48;2.97;;;1.83;;
10880;SDS011;5493;48.884;8.338;2023-04-15T13:13:14;3.88;;;2.30;;
10880;SDS011;5493;48.884;8.338;2023-04-15T13:15:41;5.03;;;2.05;;
10880;SDS011;5493;48.884;8.338;2023-04-15T13:18:11;1.65;;;1.50;;
10880;SDS011;5493;48.884;8.338;2023-04-15T13:20:37;4.43;;;2.03;;
10880;SDS011;5493;48.884;8.338;2023-04-15T13:23:04;3.53;;;2.10;;
10880;SDS011;5493;48.884;8.338;2023-04-15T13:25:30;2.95;;;2.00;;
10880;SDS011;5493;48.884;8.338;2023-04-15T13:27:57;3.97;;;1.90;;
10880;SDS011;5493;48.884;8.338;2023-04-15T13:30:25;2.40;;;1.92;;
10880;SDS011;5493;48.884;8.338;2023-04-15T13:32:51;2.67;;;2.00;;
10880;SDS011;5493;48.884;8.338;2023-04-15T13:35:20;5.85;;;2.20;;
10880;SDS011;5493;48.884;8.338;2023-04-15T13:37:46;3.35;;;2.20;;
10880;SDS011;5493;48.884;8.338;2023-04-15T13:40:13;3.28;;;2.10;;
10880;SDS011;5493;48.884;8.338;2023-04-15T13:42:39;3.38;;;1.90;;
10880;SDS011;5493;48.884;8.338;2023-04-15T13:45:07;2.63;;;1.85;;
10880;SDS011;5493;48.884;8.338;2023-04-15T13:47:34;2.72;;;1.88;;
10880;SDS011;5493;48.884;8.338;2023-04-15T13:50:01;3.85;;;2.13;;
10880;SDS011;5493;48.884;8.338;2023-04-15T13:52:28;4.70;;;2.10;;
10880;SDS011;5493;48.884;8.338;2023-04-15T13:54:55;3.63;;;2.17;;
10880;SDS011;5493;48.884;8.338;2023-04-15T13:57:21;3.50;;;1.83;;
10880;SDS011;5493;48.884;8.338;2023-04-15T13:59:48;3.33;;;1.80;;
10880;SDS011;5493;48.884;8.338;2023-04-15T14:02:14;5.83;;;1.90;;
10880;SDS011;5493;48.884;8.338;2023-04-15T14:04:41;4.43;;;1.90;;
10880;SDS011;5493;48.884;8.338;2023-04-15T14:07:07;4.30;;;1.80;;
10880;SDS011;5493;48.884;8.338;2023-04-15T14:09:35;2.80;;;1.90;;
10880;SDS011;5493;48.884;8.338;2023-04-15T14:12:01;5.60;;;1.83;;
10880;SDS011;5493;48.884;8.338;2023-04-15T14:14:28;3.23;;;1.80;;
10880;SDS011;5493;48.884;8.338;2023-04-15T14:16:55;6.07;;;2.00;;
10880;SDS011;5493;48.884;8.338;2023-04-15T14:19:22;2.83;;;1.70;;
10880;SDS011;5493;48.884;8.338;2023-04-15T14:21:49;4.00;;;2.23;;
10880;SDS011;5493;48.884;8.338;2023-04-15T14:24:15;4.63;;;2.33;;
10880;SDS011;5493;48.884;8.338;2023-04-15T14:26:43;2.80;;;2.23;;
10880;SDS011;5493;48.884;8.338;2023-04-15T14:29:10;4.80;;;2.50;;
10880;SDS011;5493;48.884;8.338;2023-04-15T14:31:36;2.93;;;2.40;;
10880;SDS011;5493;48.884;8.338;2023-04-15T14:34:03;4.80;;;2.70;;
10880;SDS011;5493;48.884;8.338;2023-04-15T14:36:30;4.87;;;2.50;;
10880;SDS011;5493;48.884;8.338;2023-04-15T14:38:56;4.03;;;2.80;;
10880;SDS011;5493;48.884;8.338;2023-04-15T14:41:23;4.00;;;2.23;;
10880;SDS011;5493;48.884;8.338;2023-04-15T14:43:50;3.43;;;2.07;;
10880;SDS011;5493;48.884;8.338;2023-04-15T14:46:17;6.30;;;2.60;;
10880;SDS011;5493;48.884;8.338;2023-04-15T14:48:43;3.60;;;2.37;;
10880;SDS011;5493;48.884;8.338;2023-04-15T14:51:10;2.90;;;1.87;;
10880;SDS011;5493;48.884;8.338;2023-04-15T14:53:36;3.93;;;2.07;;
10880;SDS011;5493;48.884;8.338;2023-04-15T14:56:03;2.90;;;2.10;;
10880;SDS011;5493;48.884;8.338;2023-04-15T14:58:29;2.43;;;1.90;;
10880;SDS011;5493;48.884;8.338;2023-04-15T15:00:58;4.13;;;2.27;;
10880;SDS011;5493;48.884;8.338;2023-04-15T15:03:25;2.93;;;2.07;;
10880;SDS011;5493;48.884;8.338;2023-04-15T15:05:52;2.70;;;1.80;;
10880;SDS011;5493;48.884;8.338;2023-04-15T15:08:18;4.03;;;1.80;;
10880;SDS011;5493;48.884;8.338;2023-04-15T15:10:45;3.70;;;2.13;;
10880;SDS011;5493;48.884;8.338;2023-04-15T15:13:12;3.27;;;1.83;;